createdAt,value
2022-12-14T00:01:45.093Z,33.92
2022-12-14T00:04:16.439Z,38.10
2022-12-14T00:06:43.712Z,33.05
2022-12-14T00:09:11.273Z,35.53
2022-12-14T00:11:38.915Z,33.25
2022-12-14T00:14:07.007Z,32.78
2022-12-14T00:16:35.287Z,41.80
2022-12-14T00:19:03.200Z,42.03
2022-12-14T00:21:30.426Z,32.35
2022-12-14T00:23:59.404Z,33.70
2022-12-14T00:26:30.123Z,37.17
2022-12-14T00:29:00.386Z,31.90
2022-12-14T00:31:28.200Z,31.23
2022-12-14T00:33:55.652Z,30.90
2022-12-14T00:36:23.404Z,30.65
2022-12-14T00:38:51.876Z,32.63
2022-12-14T00:41:19.391Z,32.50
2022-12-14T00:43:49.300Z,31.90
2022-12-14T00:46:18.175Z,29.00
2022-12-14T00:48:45.773Z,31.35
2022-12-14T00:51:15.071Z,29.83
2022-12-14T00:53:44.278Z,31.25
2022-12-14T00:56:11.834Z,31.55
2022-12-14T00:58:39.134Z,31.08
2022-12-14T01:01:09.771Z,32.63
2022-12-14T01:03:37.115Z,34.60
2022-12-14T01:06:04.521Z,33.20
2022-12-14T01:08:35.948Z,30.02
2022-12-14T01:11:05.763Z,29.92
2022-12-14T01:13:33.776Z,30.55
2022-12-14T01:16:06.783Z,32.65
2022-12-14T01:18:35.856Z,28.58
2022-12-14T01:21:09.535Z,33.67
2022-12-14T01:23:37.586Z,34.85
2022-12-14T01:26:04.864Z,33.30
2022-12-14T01:28:32.249Z,35.60
2022-12-14T01:30:59.542Z,32.63
2022-12-14T01:33:27.008Z,30.20
2022-12-14T01:35:55.496Z,30.35
2022-12-14T01:38:22.934Z,39.35
2022-12-14T01:40:50.216Z,32.58
2022-12-14T01:43:17.469Z,31.55
2022-12-14T01:45:44.672Z,32.30
2022-12-14T01:48:13.440Z,34.00
2022-12-14T01:50:43.692Z,32.53
2022-12-14T01:53:15.916Z,32.28
2022-12-14T01:55:48.808Z,27.65
2022-12-14T01:58:24.006Z,31.23
2022-12-14T02:00:56.334Z,34.03
2022-12-14T02:03:26.643Z,40.00
2022-12-14T02:05:58.200Z,38.90
2022-12-14T02:08:27.292Z,39.72
2022-12-14T02:10:55.770Z,34.78
2022-12-14T02:13:27.268Z,36.15
2022-12-14T02:15:54.919Z,37.45
2022-12-14T02:18:24.554Z,39.47
2022-12-14T02:21:01.485Z,38.42
2022-12-14T02:23:42.909Z,41.05
2022-12-14T02:26:31.163Z,34.90
2022-12-14T02:29:16.890Z,37.55
2022-12-14T02:31:47.038Z,36.20
2022-12-14T02:34:51.711Z,37.42
2022-12-14T02:37:24.936Z,39.08
2022-12-14T02:40:14.471Z,38.10
2022-12-14T02:42:56.632Z,36.70
2022-12-14T02:45:42.481Z,42.10
2022-12-14T02:48:16.758Z,36.28
2022-12-14T02:50:51.772Z,37.95
2022-12-14T02:53:26.699Z,37.13
2022-12-14T02:55:54.942Z,39.10
2022-12-14T02:58:41.445Z,41.20
2022-12-14T03:01:12.728Z,37.88
2022-12-14T03:03:40.974Z,38.72
2022-12-14T03:06:26.225Z,36.92
2022-12-14T03:09:16.858Z,35.92
2022-12-14T03:12:07.612Z,36.90
2022-12-14T03:14:40.013Z,34.47
2022-12-14T03:17:19.276Z,34.88
2022-12-14T03:20:07.142Z,36.28
2022-12-14T03:22:49.535Z,36.25
2022-12-14T03:25:22.442Z,36.15
2022-12-14T03:27:53.704Z,34.53
2022-12-14T03:30:43.841Z,37.17
2022-12-14T03:33:13.790Z,37.45
2022-12-14T03:35:50.693Z,38.75
2022-12-14T03:38:21.426Z,36.58
2022-12-14T03:40:53.504Z,36.85
2022-12-14T03:43:42.926Z,37.80
2022-12-14T03:46:41.832Z,34.90
2022-12-14T03:49:17.303Z,36.40
2022-12-14T03:52:00.384Z,37.30
2022-12-14T03:54:33.793Z,38.88
2022-12-14T03:57:15.049Z,39.20
2022-12-14T03:59:54.246Z,36.55
2022-12-14T04:02:36.311Z,39.72
2022-12-14T04:05:12.541Z,34.53
2022-12-14T04:07:46.109Z,35.17
2022-12-14T04:10:39.248Z,36.42
2022-12-14T04:13:29.065Z,38.90
2022-12-14T04:16:18.782Z,35.58
2022-12-14T04:19:00.314Z,38.85
2022-12-14T04:21:38.237Z,36.10
2022-12-14T04:24:37.703Z,38.70
2022-12-14T04:27:30.147Z,39.42
2022-12-14T04:30:00.421Z,38.28
2022-12-14T04:32:53.004Z,35.40
2022-12-14T04:35:39.963Z,38.15
2022-12-14T04:38:11.431Z,38.83
2022-12-14T04:40:44.209Z,39.53
2022-12-14T04:43:15.512Z,38.42
2022-12-14T04:45:53.973Z,42.78
2022-12-14T04:48:52.240Z,46.83
2022-12-14T04:51:50.960Z,55.72
2022-12-14T04:54:39.960Z,55.50
2022-12-14T04:57:18.977Z,51.83
2022-12-14T04:59:47.655Z,47.85
2022-12-14T05:02:52.682Z,50.78
2022-12-14T05:05:27.400Z,44.45
2022-12-14T05:08:10.349Z,41.85
2022-12-14T05:11:39.457Z,43.35
2022-12-14T05:13:55.218Z,42.50
2022-12-14T05:16:23.462Z,39.05
2022-12-14T05:18:51.117Z,40.42
2022-12-14T05:21:36.889Z,39.63
2022-12-14T05:24:04.444Z,39.70
2022-12-14T05:26:32.040Z,40.45
2022-12-14T05:28:59.355Z,38.47
2022-12-14T05:31:27.023Z,39.67
2022-12-14T05:33:54.304Z,40.63
2022-12-14T05:36:21.931Z,37.72
2022-12-14T05:38:49.241Z,39.17
2022-12-14T05:41:16.443Z,37.30
2022-12-14T05:43:43.732Z,37.10
2022-12-14T05:46:12.104Z,37.10
2022-12-14T05:48:39.643Z,39.97
2022-12-14T05:51:08.842Z,39.10
2022-12-14T05:53:36.615Z,37.13
2022-12-14T05:56:05.760Z,39.35
2022-12-14T05:58:34.787Z,41.40
2022-12-14T06:01:09.149Z,37.10
2022-12-14T06:03:38.900Z,36.10
2022-12-14T06:06:09.445Z,39.13
2022-12-14T06:08:39.518Z,37.83
2022-12-14T06:11:11.970Z,39.55
2022-12-14T06:13:40.037Z,39.95
2022-12-14T06:16:26.592Z,35.08
2022-12-14T06:18:58.826Z,38.05
2022-12-14T06:21:29.140Z,43.45
2022-12-14T06:23:56.975Z,35.70
2022-12-14T06:26:25.276Z,40.17
2022-12-14T06:28:52.943Z,39.25
2022-12-14T06:31:22.603Z,37.58
2022-12-14T06:33:50.453Z,34.38
2022-12-14T06:36:24.054Z,38.42
2022-12-14T06:38:51.929Z,38.63
2022-12-14T06:41:20.308Z,40.60
2022-12-14T06:43:53.278Z,38.42
2022-12-14T06:46:24.706Z,41.67
2022-12-14T06:48:53.522Z,38.70
2022-12-14T06:51:22.716Z,39.70
2022-12-14T06:53:51.911Z,41.55
2022-12-14T06:56:20.398Z,44.90
2022-12-14T06:58:48.232Z,43.15
2022-12-14T07:01:21.221Z,48.45
2022-12-14T07:03:50.956Z,41.60
2022-12-14T07:06:18.194Z,46.42
2022-12-14T07:08:45.937Z,41.47
2022-12-14T07:11:15.260Z,42.08
2022-12-14T07:13:42.771Z,47.65
2022-12-14T07:16:16.390Z,44.80
2022-12-14T07:18:44.035Z,40.92
2022-12-14T07:21:13.733Z,45.03
2022-12-14T07:23:42.527Z,44.55
2022-12-14T07:26:13.272Z,50.70
2022-12-14T07:28:41.185Z,47.65
2022-12-14T07:31:12.339Z,41.17
2022-12-14T07:33:39.687Z,50.17
2022-12-14T07:36:26.220Z,44.47
2022-12-14T07:38:55.652Z,45.65
2022-12-14T07:41:25.746Z,48.28
2022-12-14T07:43:54.565Z,39.95
2022-12-14T07:46:24.213Z,44.10
2022-12-14T07:48:56.810Z,46.03
2022-12-14T07:51:26.542Z,43.47
2022-12-14T07:53:54.720Z,50.55
2022-12-14T07:56:25.099Z,52.70
2022-12-14T07:58:54.183Z,42.00
2022-12-14T08:01:23.702Z,49.73
2022-12-14T08:03:52.280Z,46.83
2022-12-14T08:06:20.916Z,46.65
2022-12-14T08:08:49.288Z,45.08
2022-12-14T08:11:16.867Z,50.13
2022-12-14T08:13:44.325Z,46.00
2022-12-14T08:16:14.105Z,51.53
2022-12-14T08:18:42.421Z,49.72
2022-12-14T08:21:11.011Z,45.13
2022-12-14T08:23:39.051Z,43.60
2022-12-14T08:26:06.538Z,43.53
2022-12-14T08:28:35.411Z,47.50
2022-12-14T08:31:08.479Z,43.75
2022-12-14T08:33:36.954Z,46.97
2022-12-14T08:36:27.869Z,42.72
2022-12-14T08:38:56.791Z,46.08
2022-12-14T08:41:25.141Z,43.33
2022-12-14T08:43:57.220Z,41.22
2022-12-14T08:46:25.998Z,44.10
2022-12-14T08:48:55.073Z,46.95
2022-12-14T08:51:23.574Z,44.67
2022-12-14T08:53:51.664Z,45.83
2022-12-14T08:56:21.455Z,44.35
2022-12-14T08:58:49.218Z,39.97
2022-12-14T09:01:34.049Z,43.55
2022-12-14T09:04:04.935Z,39.13
2022-12-14T09:06:35.015Z,40.92
2022-12-14T09:11:29.336Z,40.63
2022-12-14T09:13:56.848Z,39.30
2022-12-14T09:16:28.612Z,42.50
2022-12-14T09:18:56.075Z,43.00
2022-12-14T09:21:24.059Z,38.40
2022-12-14T09:23:57.278Z,43.03
2022-12-14T09:26:26.597Z,39.83
2022-12-14T09:28:56.360Z,53.22
2022-12-14T09:31:26.216Z,45.30
2022-12-14T09:36:27.690Z,38.95
2022-12-14T09:38:56.677Z,41.97
2022-12-14T09:41:33.005Z,37.80
2022-12-14T09:44:17.920Z,42.42
2022-12-14T09:46:54.896Z,44.97
2022-12-14T09:49:25.692Z,40.95
2022-12-14T09:51:57.395Z,45.22
2022-12-14T09:54:31.005Z,42.53
2022-12-14T09:57:01.761Z,36.13
2022-12-14T09:59:31.868Z,39.25
2022-12-14T10:02:32.364Z,44.78
2022-12-14T10:05:25.058Z,36.38
2022-12-14T10:08:18.377Z,41.90
2022-12-14T10:10:51.564Z,38.30
2022-12-14T10:13:29.394Z,40.53
2022-12-14T10:16:27.200Z,43.85
2022-12-14T10:19:17.326Z,45.70
2022-12-14T10:21:51.658Z,52.13
2022-12-14T10:24:42.897Z,42.10
2022-12-14T10:27:11.376Z,39.25
2022-12-14T10:29:47.955Z,40.22
2022-12-14T10:32:25.753Z,40.05
2022-12-14T10:34:53.289Z,43.30
2022-12-14T10:37:27.713Z,43.95
2022-12-14T10:40:17.581Z,38.45
2022-12-14T10:42:49.790Z,40.92
2022-12-14T10:45:41.450Z,43.97
2022-12-14T10:48:46.595Z,41.83
2022-12-14T10:51:22.195Z,46.97
2022-12-14T10:54:00.299Z,45.88
2022-12-14T10:56:33.532Z,49.95
2022-12-14T10:59:22.098Z,52.92
2022-12-14T11:02:04.117Z,44.00
2022-12-14T11:04:34.682Z,41.85
2022-12-14T11:07:10.291Z,39.33
2022-12-14T11:09:39.161Z,40.25
2022-12-14T11:12:32.797Z,44.03
2022-12-14T11:15:03.103Z,41.58
2022-12-14T11:17:39.797Z,42.83
2022-12-14T11:20:22.407Z,43.88
2022-12-14T11:22:51.450Z,44.67
2022-12-14T11:25:37.653Z,45.23
2022-12-14T11:28:37.804Z,47.88
2022-12-14T11:31:13.742Z,44.90
2022-12-14T11:33:45.734Z,44.80
2022-12-14T11:36:27.009Z,50.83
2022-12-14T11:38:59.476Z,59.58
2022-12-14T11:41:34.011Z,51.03
2022-12-14T11:44:07.060Z,49.60
2022-12-14T11:46:44.913Z,48.30
2022-12-14T11:49:28.722Z,51.75
2022-12-14T11:51:55.911Z,68.50
2022-12-14T11:54:23.300Z,54.90
2022-12-14T11:56:51.233Z,54.85
2022-12-14T11:59:19.344Z,51.85
2022-12-14T12:01:46.922Z,60.58
2022-12-14T12:04:15.752Z,54.40
2022-12-14T12:06:43.193Z,50.78
2022-12-14T12:09:28.057Z,52.08
2022-12-14T12:11:55.354Z,50.20
2022-12-14T12:14:29.874Z,42.53
2022-12-14T12:16:57.827Z,60.50
2022-12-14T12:19:30.637Z,52.03
2022-12-14T12:22:01.077Z,56.33
2022-12-14T12:25:08.371Z,109.70
2022-12-14T12:27:33.070Z,49.28
2022-12-14T12:30:07.468Z,55.58
2022-12-14T12:32:44.043Z,58.65
2022-12-14T12:35:50.111Z,58.63
2022-12-14T12:38:23.223Z,57.15
2022-12-14T12:40:56.323Z,57.60
2022-12-14T12:43:32.218Z,51.33
2022-12-14T12:46:02.795Z,62.60
2022-12-14T12:48:39.801Z,60.03
2022-12-14T12:51:17.182Z,50.75
2022-12-14T12:53:46.086Z,54.97
2022-12-14T12:56:16.940Z,57.83
2022-12-14T12:58:50.623Z,53.33
2022-12-14T13:01:47.922Z,53.10
2022-12-14T13:04:37.461Z,49.45
2022-12-14T13:07:23.007Z,44.47
2022-12-14T13:09:55.178Z,45.00
2022-12-14T13:12:44.019Z,45.10
2022-12-14T13:15:37.699Z,53.75
2022-12-14T13:18:49.363Z,70.72
2022-12-14T13:21:28.477Z,54.45
2022-12-14T13:23:55.996Z,48.78
2022-12-14T13:26:57.872Z,41.13
2022-12-14T13:29:43.636Z,49.75
2022-12-14T13:32:33.835Z,51.15
2022-12-14T13:35:29.239Z,43.85
2022-12-14T13:38:08.638Z,62.47
2022-12-14T13:40:38.964Z,61.53
2022-12-14T13:43:29.667Z,62.05
2022-12-14T13:46:04.703Z,51.95
2022-12-14T13:48:37.334Z,52.53
2022-12-14T13:51:06.577Z,52.42
2022-12-14T13:53:58.838Z,60.42
2022-12-14T13:56:33.596Z,60.47
2022-12-14T13:59:04.111Z,61.42
2022-12-14T14:01:40.620Z,46.30
2022-12-14T14:04:11.043Z,51.70
2022-12-14T14:06:40.802Z,47.60
2022-12-14T14:09:26.474Z,51.92
2022-12-14T14:12:19.551Z,52.83
2022-12-14T14:14:58.021Z,42.72
2022-12-14T14:17:37.354Z,47.88
2022-12-14T14:20:33.799Z,46.65
2022-12-14T14:23:16.731Z,44.15
2022-12-14T14:25:50.177Z,49.35
2022-12-14T14:28:22.998Z,47.30
2022-12-14T14:30:59.859Z,49.80
2022-12-14T14:33:46.062Z,46.15
2022-12-14T14:36:41.123Z,50.35
2022-12-14T14:39:55.447Z,44.03
2022-12-14T14:42:21.892Z,44.85
2022-12-14T14:44:55.018Z,45.17
2022-12-14T14:47:28.619Z,48.67
2022-12-14T14:50:02.322Z,51.97
2022-12-14T14:52:41.744Z,46.63
2022-12-14T14:55:52.066Z,55.15
2022-12-14T14:58:35.840Z,43.95
2022-12-14T15:01:06.445Z,50.70
2022-12-14T15:03:53.463Z,54.08
2022-12-14T15:06:27.757Z,43.20
2022-12-14T15:09:10.998Z,49.88
2022-12-14T15:11:53.315Z,51.72
2022-12-14T15:14:53.370Z,50.88
2022-12-14T15:17:23.461Z,52.38
2022-12-14T15:22:23.809Z,42.45
2022-12-14T15:24:53.682Z,48.30
2022-12-14T15:27:27.598Z,44.17
2022-12-14T15:30:14.471Z,48.40
2022-12-14T15:32:47.613Z,48.42
2022-12-14T15:35:23.457Z,57.13
2022-12-14T15:37:58.008Z,48.97
2022-12-14T15:40:30.229Z,46.78
2022-12-14T15:43:00.002Z,47.50
2022-12-14T15:45:34.842Z,54.47
2022-12-14T15:48:15.247Z,44.55
2022-12-14T15:50:46.189Z,48.42
2022-12-14T15:53:18.049Z,39.92
2022-12-14T15:55:50.018Z,37.30
2022-12-14T15:58:32.570Z,39.28
2022-12-14T16:01:17.779Z,42.38
2022-12-14T16:03:48.546Z,40.35
2022-12-14T16:06:17.404Z,39.33
2022-12-14T16:08:50.385Z,39.92
2022-12-14T16:11:24.959Z,42.78
2022-12-14T16:13:52.527Z,41.53
2022-12-14T16:16:19.926Z,44.60
2022-12-14T16:18:51.297Z,40.47
2022-12-14T16:21:37.113Z,40.53
2022-12-14T16:24:23.408Z,37.95
2022-12-14T16:26:59.121Z,39.97
2022-12-14T16:29:31.594Z,43.60
2022-12-14T16:32:07.128Z,38.67
2022-12-14T16:34:34.463Z,38.08
2022-12-14T16:39:52.529Z,45.42
2022-12-14T16:42:22.632Z,43.45
2022-12-14T16:44:53.796Z,36.67
2022-12-14T16:47:21.491Z,38.95
2022-12-14T16:50:00.336Z,38.25
2022-12-14T16:55:26.369Z,39.67
2022-12-14T16:57:56.104Z,38.85
2022-12-14T17:00:23.336Z,45.17
2022-12-14T17:03:18.679Z,41.55
2022-12-14T17:05:52.327Z,39.95
2022-12-14T17:08:19.722Z,39.03
2022-12-14T17:10:47.178Z,39.50
2022-12-14T17:13:14.485Z,39.60
2022-12-14T17:16:05.842Z,38.67
2022-12-14T17:18:37.739Z,41.85
2022-12-14T17:21:05.792Z,37.80
2022-12-14T17:23:35.375Z,41.95
2022-12-14T17:26:02.685Z,42.08
2022-12-14T17:28:31.481Z,43.90
2022-12-14T17:31:01.653Z,37.85
2022-12-14T17:33:30.187Z,48.60
2022-12-14T17:35:57.793Z,40.38
2022-12-14T17:38:25.109Z,44.85
2022-12-14T17:40:53.827Z,42.55
2022-12-14T17:43:25.102Z,38.00
2022-12-14T17:45:53.117Z,40.17
2022-12-14T17:48:20.970Z,43.67
2022-12-14T17:50:49.933Z,45.08
2022-12-14T17:53:21.720Z,49.03
2022-12-14T17:55:48.913Z,40.78
2022-12-14T17:58:16.886Z,44.20
2022-12-14T18:01:03.453Z,42.33
2022-12-14T18:03:33.163Z,40.95
2022-12-14T18:06:02.267Z,42.15
2022-12-14T18:08:29.626Z,41.30
2022-12-14T18:11:00.008Z,47.67
2022-12-14T18:13:28.678Z,41.88
2022-12-14T18:15:56.479Z,42.58
2022-12-14T18:18:27.523Z,40.00
2022-12-14T18:21:00.470Z,39.92
2022-12-14T18:23:29.845Z,41.03
2022-12-14T18:25:59.117Z,44.33
2022-12-14T18:28:26.594Z,42.97
2022-12-14T18:30:57.297Z,42.65
2022-12-14T18:33:27.644Z,41.10
2022-12-14T18:35:56.499Z,38.90
2022-12-14T18:38:24.637Z,37.83
2022-12-14T18:40:53.837Z,40.90
2022-12-14T18:43:23.951Z,39.45
2022-12-14T18:45:53.102Z,38.60
2022-12-14T18:48:21.466Z,46.83
2022-12-14T18:50:49.526Z,42.58
2022-12-14T18:53:19.834Z,39.47
2022-12-14T18:55:48.093Z,43.53
2022-12-14T18:58:24.121Z,40.42
2022-12-14T19:00:54.610Z,40.72
2022-12-14T19:03:23.096Z,39.38
2022-12-14T19:05:50.541Z,40.22
2022-12-14T19:08:17.984Z,41.55
2022-12-14T19:10:48.058Z,37.75
2022-12-14T19:15:52.329Z,37.67
2022-12-14T19:18:19.636Z,43.28
2022-12-14T19:20:49.519Z,39.05
2022-12-14T19:23:19.344Z,44.83
2022-12-14T19:25:47.195Z,46.45
2022-12-14T19:28:31.462Z,45.15
2022-12-14T19:31:01.172Z,50.20
2022-12-14T19:33:29.850Z,43.72
2022-12-14T19:35:57.664Z,46.00
2022-12-14T19:38:24.966Z,41.83
2022-12-14T19:41:01.094Z,46.88
2022-12-14T19:43:29.838Z,37.28
2022-12-14T19:45:57.513Z,40.15
2022-12-14T19:48:24.759Z,38.30
2022-12-14T19:50:52.168Z,39.92
2022-12-14T19:53:23.771Z,41.70
2022-12-14T19:55:52.592Z,44.25
2022-12-14T19:58:22.037Z,36.80
2022-12-14T20:00:50.594Z,35.30
2022-12-14T20:03:18.348Z,44.88
2022-12-14T20:05:53.605Z,40.03
2022-12-14T20:08:21.482Z,38.10
2022-12-14T20:10:49.264Z,42.80
2022-12-14T20:13:16.501Z,38.97
2022-12-14T20:15:58.357Z,38.72
2022-12-14T20:18:26.460Z,42.65
2022-12-14T20:20:53.833Z,36.63
2022-12-14T20:23:22.041Z,36.17
2022-12-14T20:25:49.334Z,33.90
2022-12-14T20:28:16.691Z,38.70
2022-12-14T20:30:45.279Z,40.75
2022-12-14T20:33:13.108Z,42.13
2022-12-14T20:35:40.349Z,40.20
2022-12-14T20:38:07.879Z,39.20
2022-12-14T20:40:38.808Z,33.75
2022-12-14T20:43:07.276Z,38.58
2022-12-14T20:45:43.945Z,38.53
2022-12-14T20:48:11.387Z,40.83
2022-12-14T20:50:40.364Z,41.63
2022-12-14T20:53:07.939Z,40.70
2022-12-14T20:55:35.637Z,41.47
2022-12-14T20:58:02.901Z,42.03
2022-12-14T21:00:30.453Z,43.85
2022-12-14T21:02:58.070Z,41.05
2022-12-14T21:05:25.586Z,41.80
2022-12-14T21:07:53.018Z,43.33
2022-12-14T21:10:20.288Z,40.60
2022-12-14T21:12:48.640Z,39.53
2022-12-14T21:15:16.114Z,43.70
2022-12-14T21:17:46.327Z,40.10
2022-12-14T21:20:13.682Z,37.30
2022-12-14T21:22:41.023Z,40.70
2022-12-14T21:25:08.505Z,40.58
2022-12-14T21:27:40.770Z,38.63
2022-12-14T21:30:10.175Z,39.42
2022-12-14T21:32:38.422Z,43.90
2022-12-14T21:35:06.294Z,43.00
2022-12-14T21:37:33.701Z,37.83
2022-12-14T21:40:03.649Z,41.30
2022-12-14T21:44:57.981Z,45.47
2022-12-14T21:47:27.261Z,37.80
2022-12-14T21:49:54.923Z,42.15
2022-12-14T21:52:24.992Z,43.55
2022-12-14T21:57:40.643Z,39.13
2022-12-14T22:00:09.770Z,41.10
2022-12-14T22:02:39.898Z,42.80
2022-12-14T22:05:07.639Z,38.50
2022-12-14T22:07:35.070Z,40.60
2022-12-14T22:10:02.505Z,48.53
2022-12-14T22:12:29.804Z,43.33
2022-12-14T22:14:57.190Z,41.83
2022-12-14T22:17:24.425Z,40.05
2022-12-14T22:19:54.234Z,38.22
2022-12-14T22:22:21.534Z,47.15
2022-12-14T22:24:49.888Z,43.35
2022-12-14T22:27:17.734Z,41.83
2022-12-14T22:29:45.037Z,43.75
2022-12-14T22:32:12.950Z,47.00
2022-12-14T22:34:40.763Z,43.35
2022-12-14T22:37:08.444Z,41.88
2022-12-14T22:39:36.007Z,39.75
2022-12-14T22:42:03.353Z,39.45
2022-12-14T22:44:30.824Z,44.58
2022-12-14T22:46:58.314Z,41.83
2022-12-14T22:49:25.652Z,48.47
2022-12-14T22:51:53.071Z,43.55
2022-12-14T22:54:25.448Z,42.30
2022-12-14T22:57:04.921Z,49.00
2022-12-14T22:59:45.502Z,43.17
2022-12-14T23:02:13.086Z,42.45
2022-12-14T23:04:40.595Z,41.97
2022-12-14T23:07:08.020Z,41.83
2022-12-14T23:09:53.873Z,45.78
2022-12-14T23:12:39.783Z,41.78
2022-12-14T23:15:25.622Z,43.88
2022-12-14T23:18:20.099Z,47.70
2022-12-14T23:21:06.094Z,43.85
2022-12-14T23:23:51.851Z,43.90
2022-12-14T23:26:37.642Z,48.40
2022-12-14T23:29:23.576Z,43.35
2022-12-14T23:32:09.438Z,41.80
2022-12-14T23:34:55.240Z,42.38
2022-12-14T23:37:41.378Z,42.33
2022-12-14T23:40:27.765Z,46.47
2022-12-14T23:43:13.587Z,43.50
2022-12-14T23:46:00.228Z,47.08
2022-12-14T23:48:46.706Z,41.30
2022-12-14T23:51:32.588Z,42.58
2022-12-14T23:54:18.315Z,48.72
2022-12-14T23:57:04.207Z,46.35
2022-12-14T23:59:50.214Z,44.58
